sensor_id;sensor_type;location;lat;lon;timestamp;pressure;altitude;pressure_sealevel;temperature;humidity
64192;BME280;50497;50.720;-2.084;2023-02-17T00:01:40;99989.72;;;9.87;100.00
64192;BME280;50497;50.720;-2.084;2023-02-17T00:04:08;99982.88;;;9.81;100.00
64192;BME280;50497;50.720;-2.084;2023-02-17T00:06:40;99943.88;;;9.78;100.00
64192;BME280;50497;50.720;-2.084;2023-02-17T00:09:08;99954.00;;;9.88;100.00
64192;BME280;50497;50.720;-2.084;2023-02-17T00:11:37;99959.00;;;9.94;100.00
64192;BME280;50497;50.720;-2.084;2023-02-17T00:14:05;99956.34;;;9.94;100.00
64192;BME280;50497;50.720;-2.084;2023-02-17T00:16:34;99960.75;;;9.95;100.00
64192;BME280;50497;50.720;-2.084;2023-02-17T00:19:01;99966.09;;;9.95;100.00
64192;BME280;50497;50.720;-2.084;2023-02-17T00:21:29;99983.81;;;9.96;100.00
64192;BME280;50497;50.720;-2.084;2023-02-17T00:24:01;99992.38;;;9.87;100.00
64192;BME280;50497;50.720;-2.084;2023-02-17T00:26:27;100049.63;;;9.98;100.00
64192;BME280;50497;50.720;-2.084;2023-02-17T00:28:52;100064.78;;;9.98;100.00
64192;BME280;50497;50.720;-2.084;2023-02-17T00:31:22;100096.69;;;10.01;100.00
64192;BME280;50497;50.720;-2.084;2023-02-17T00:33:54;100108.09;;;10.05;100.00
64192;BME280;50497;50.720;-2.084;2023-02-17T00:36:20;100131.09;;;10.07;100.00
64192;BME280;50497;50.720;-2.084;2023-02-17T00:38:50;100132.75;;;10.10;100.00
64192;BME280;50497;50.720;-2.084;2023-02-17T00:41:18;100140.84;;;10.08;100.00
64192;BME280;50497;50.720;-2.084;2023-02-17T00:43:47;100141.69;;;10.09;100.00
64192;BME280;50497;50.720;-2.084;2023-02-17T00:46:17;100153.06;;;10.12;100.00
64192;BME280;50497;50.720;-2.084;2023-02-17T00:48:43;100149.38;;;10.15;100.00
64192;BME280;50497;50.720;-2.084;2023-02-17T00:51:09;100161.81;;;10.16;100.00
64192;BME280;50497;50.720;-2.084;2023-02-17T00:53:44;100150.94;;;10.19;100.00
64192;BME280;50497;50.720;-2.084;2023-02-17T00:56:10;100150.69;;;10.24;100.00
64192;BME280;50497;50.720;-2.084;2023-02-17T00:58:40;100158.88;;;10.21;100.00
64192;BME280;50497;50.720;-2.084;2023-02-17T01:01:06;100143.78;;;10.20;100.00
64192;BME280;50497;50.720;-2.084;2023-02-17T01:03:32;100151.81;;;10.20;100.00
64192;BME280;50497;50.720;-2.084;2023-02-17T01:06:05;100138.97;;;10.26;100.00
64192;BME280;50497;50.720;-2.084;2023-02-17T01:08:31;100143.34;;;10.27;100.00
64192;BME280;50497;50.720;-2.084;2023-02-17T01:10:57;100154.03;;;10.27;100.00
64192;BME280;50497;50.720;-2.084;2023-02-17T01:13:22;100148.59;;;10.29;100.00
64192;BME280;50497;50.720;-2.084;2023-02-17T01:15:58;100158.38;;;10.30;100.00
64192;BME280;50497;50.720;-2.084;2023-02-17T01:18:31;100152.34;;;10.26;100.00
64192;BME280;50497;50.720;-2.084;2023-02-17T01:20:59;100153.03;;;10.30;100.00
64192;BME280;50497;50.720;-2.084;2023-02-17T01:23:29;100145.50;;;10.21;100.00
64192;BME280;50497;50.720;-2.084;2023-02-17T01:26:05;100146.56;;;10.34;100.00
64192;BME280;50497;50.720;-2.084;2023-02-17T01:28:34;100148.47;;;10.32;100.00
64192;BME280;50497;50.720;-2.084;2023-02-17T01:31:08;100137.63;;;10.35;100.00
64192;BME280;50497;50.720;-2.084;2023-02-17T01:33:35;100141.22;;;10.34;100.00
64192;BME280;50497;50.720;-2.084;2023-02-17T01:36:07;100144.88;;;10.33;100.00
64192;BME280;50497;50.720;-2.084;2023-02-17T01:38:38;100139.34;;;10.36;100.00
64192;BME280;50497;50.720;-2.084;2023-02-17T01:41:10;100140.88;;;10.40;100.00
64192;BME280;50497;50.720;-2.084;2023-02-17T01:43:38;100141.56;;;10.44;100.00
64192;BME280;50497;50.720;-2.084;2023-02-17T01:46:08;100132.53;;;10.46;100.00
64192;BME280;50497;50.720;-2.084;2023-02-17T01:48:48;100125.44;;;10.45;100.00
64192;BME280;50497;50.720;-2.084;2023-02-17T01:51:41;100132.34;;;10.49;100.00
64192;BME280;50497;50.720;-2.084;2023-02-17T01:54:11;100134.94;;;10.51;100.00
64192;BME280;50497;50.720;-2.084;2023-02-17T01:56:40;100139.50;;;10.49;100.00
64192;BME280;50497;50.720;-2.084;2023-02-17T01:59:31;100145.00;;;10.46;100.00
64192;BME280;50497;50.720;-2.084;2023-02-17T02:01:59;100151.34;;;10.45;100.00
64192;BME280;50497;50.720;-2.084;2023-02-17T02:04:29;100144.00;;;10.48;100.00
64192;BME280;50497;50.720;-2.084;2023-02-17T02:07:01;100144.31;;;10.42;100.00
64192;BME280;50497;50.720;-2.084;2023-02-17T02:09:36;100143.81;;;10.35;100.00
64192;BME280;50497;50.720;-2.084;2023-02-17T02:12:27;100145.22;;;10.43;100.00
64192;BME280;50497;50.720;-2.084;2023-02-17T02:15:04;100141.06;;;10.37;100.00
64192;BME280;50497;50.720;-2.084;2023-02-17T02:35:02;100152.06;;;10.31;100.00
64192;BME280;50497;50.720;-2.084;2023-02-17T02:38:18;100152.25;;;10.28;100.00
64192;BME280;50497;50.720;-2.084;2023-02-17T02:40:36;100160.03;;;10.32;100.00
64192;BME280;50497;50.720;-2.084;2023-02-17T02:43:09;100174.50;;;10.28;100.00
64192;BME280;50497;50.720;-2.084;2023-02-17T02:45:36;100165.00;;;10.23;100.00
64192;BME280;50497;50.720;-2.084;2023-02-17T02:48:01;100181.22;;;10.20;100.00
64192;BME280;50497;50.720;-2.084;2023-02-17T02:59:01;100197.34;;;10.18;100.00
64192;BME280;50497;50.720;-2.084;2023-02-17T03:04:30;100201.91;;;10.16;100.00
64192;BME280;50497;50.720;-2.084;2023-02-17T03:09:31;100218.97;;;10.13;100.00
64192;BME280;50497;50.720;-2.084;2023-02-17T03:11:57;100226.91;;;10.15;100.00
64192;BME280;50497;50.720;-2.084;2023-02-17T03:14:24;100215.53;;;10.11;100.00
64192;BME280;50497;50.720;-2.084;2023-02-17T03:16:54;100210.09;;;10.13;100.00
64192;BME280;50497;50.720;-2.084;2023-02-17T03:19:23;100220.72;;;10.14;100.00
64192;BME280;50497;50.720;-2.084;2023-02-17T03:24:29;100209.22;;;10.12;100.00
64192;BME280;50497;50.720;-2.084;2023-02-17T03:26:54;100220.78;;;10.13;100.00
64192;BME280;50497;50.720;-2.084;2023-02-17T03:29:24;100208.13;;;10.16;100.00
64192;BME280;50497;50.720;-2.084;2023-02-17T03:31:55;100210.00;;;10.14;100.00
64192;BME280;50497;50.720;-2.084;2023-02-17T03:34:25;100215.16;;;10.17;100.00
64192;BME280;50497;50.720;-2.084;2023-02-17T03:36:54;100218.81;;;10.16;100.00
64192;BME280;50497;50.720;-2.084;2023-02-17T03:39:19;100223.38;;;10.14;100.00
64192;BME280;50497;50.720;-2.084;2023-02-17T03:41:52;100221.72;;;10.12;100.00
64192;BME280;50497;50.720;-2.084;2023-02-17T03:44:19;100223.63;;;10.10;100.00
64192;BME280;50497;50.720;-2.084;2023-02-17T03:46:49;100222.66;;;10.11;100.00
64192;BME280;50497;50.720;-2.084;2023-02-17T03:49:14;100223.63;;;10.10;100.00
64192;BME280;50497;50.720;-2.084;2023-02-17T03:51:40;100232.56;;;10.09;100.00
64192;BME280;50497;50.720;-2.084;2023-02-17T03:54:05;100245.25;;;10.05;100.00
64192;BME280;50497;50.720;-2.084;2023-02-17T03:56:35;100242.56;;;10.05;100.00
64192;BME280;50497;50.720;-2.084;2023-02-17T03:59:02;100231.41;;;9.97;100.00
64192;BME280;50497;50.720;-2.084;2023-02-17T04:01:29;100245.16;;;10.07;100.00
64192;BME280;50497;50.720;-2.084;2023-02-17T04:03:55;100246.53;;;9.98;100.00
64192;BME280;50497;50.720;-2.084;2023-02-17T04:06:21;100255.16;;;10.03;100.00
64192;BME280;50497;50.720;-2.084;2023-02-17T04:08:51;100253.56;;;9.99;100.00
64192;BME280;50497;50.720;-2.084;2023-02-17T04:11:23;100261.50;;;10.01;100.00
64192;BME280;50497;50.720;-2.084;2023-02-17T04:13:52;100259.63;;;10.03;100.00
64192;BME280;50497;50.720;-2.084;2023-02-17T04:16:21;100256.88;;;10.04;100.00
64192;BME280;50497;50.720;-2.084;2023-02-17T04:18:50;100264.72;;;10.07;100.00
64192;BME280;50497;50.720;-2.084;2023-02-17T04:21:16;100270.00;;;10.09;100.00
64192;BME280;50497;50.720;-2.084;2023-02-17T04:23:41;100270.84;;;10.09;100.00
64192;BME280;50497;50.720;-2.084;2023-02-17T04:26:14;100276.03;;;10.12;100.00
64192;BME280;50497;50.720;-2.084;2023-02-17T04:28:41;100270.84;;;10.09;100.00
64192;BME280;50497;50.720;-2.084;2023-02-17T04:31:09;100260.16;;;10.09;100.00
64192;BME280;50497;50.720;-2.084;2023-02-17T04:33:38;100277.06;;;10.10;100.00
64192;BME280;50497;50.720;-2.084;2023-02-17T04:36:07;100262.75;;;10.11;100.00
64192;BME280;50497;50.720;-2.084;2023-02-17T04:38:40;100256.56;;;10.10;100.00
64192;BME280;50497;50.720;-2.084;2023-02-17T04:41:08;100258.28;;;10.11;100.00
64192;BME280;50497;50.720;-2.084;2023-02-17T04:43:37;100256.56;;;10.10;100.00
64192;BME280;50497;50.720;-2.084;2023-02-17T04:46:06;100256.38;;;10.13;100.00
64192;BME280;50497;50.720;-2.084;2023-02-17T04:48:32;100259.31;;;10.09;100.00
64192;BME280;50497;50.720;-2.084;2023-02-17T04:51:01;100253.78;;;10.12;100.00
64192;BME280;50497;50.720;-2.084;2023-02-17T04:53:33;100251.91;;;10.14;100.00
64192;BME280;50497;50.720;-2.084;2023-02-17T04:56:02;100244.56;;;10.17;100.00
64192;BME280;50497;50.720;-2.084;2023-02-17T04:58:31;100235.94;;;10.12;100.00
64192;BME280;50497;50.720;-2.084;2023-02-17T05:01:00;100221.56;;;10.15;100.00
64192;BME280;50497;50.720;-2.084;2023-02-17T05:03:29;100197.13;;;10.05;100.00
64192;BME280;50497;50.720;-2.084;2023-02-17T05:06:00;100192.06;;;10.16;100.00
64192;BME280;50497;50.720;-2.084;2023-02-17T05:08:25;100191.38;;;10.13;100.00
64192;BME280;50497;50.720;-2.084;2023-02-17T05:10:54;100179.63;;;10.15;100.00
64192;BME280;50497;50.720;-2.084;2023-02-17T05:13:23;100164.38;;;10.17;100.00
64192;BME280;50497;50.720;-2.084;2023-02-17T05:15:52;100152.91;;;10.15;100.00
64192;BME280;50497;50.720;-2.084;2023-02-17T05:18:17;100135.34;;;10.11;100.00
64192;BME280;50497;50.720;-2.084;2023-02-17T05:20:43;100121.00;;;10.12;100.00
64192;BME280;50497;50.720;-2.084;2023-02-17T05:23:08;100103.16;;;10.13;100.00
64192;BME280;50497;50.720;-2.084;2023-02-17T05:25:42;100078.22;;;10.12;100.00
64192;BME280;50497;50.720;-2.084;2023-02-17T05:28:11;100045.31;;;10.12;100.00
64192;BME280;50497;50.720;-2.084;2023-02-17T05:30:36;100020.72;;;10.05;100.00
64192;BME280;50497;50.720;-2.084;2023-02-17T05:33:05;100018.06;;;10.05;100.00
64192;BME280;50497;50.720;-2.084;2023-02-17T05:35:33;99974.03;;;9.96;100.00
64192;BME280;50497;50.720;-2.084;2023-02-17T05:37:59;99960.41;;;10.01;100.00
64192;BME280;50497;50.720;-2.084;2023-02-17T05:40:26;99936.53;;;9.98;100.00
64192;BME280;50497;50.720;-2.084;2023-02-17T05:42:55;99919.81;;;9.94;100.00
64192;BME280;50497;50.720;-2.084;2023-02-17T05:45:24;99900.22;;;9.94;100.00
64192;BME280;50497;50.720;-2.084;2023-02-17T05:47:50;99888.50;;;9.96;100.00
64192;BME280;50497;50.720;-2.084;2023-02-17T05:50:22;99875.50;;;9.90;100.00
64192;BME280;50497;50.720;-2.084;2023-02-17T05:52:51;99854.13;;;9.90;100.00
64192;BME280;50497;50.720;-2.084;2023-02-17T05:55:17;99827.34;;;9.76;100.00
64192;BME280;50497;50.720;-2.084;2023-02-17T05:57:46;99823.47;;;9.82;100.00
64192;BME280;50497;50.720;-2.084;2023-02-17T06:00:14;99819.00;;;9.82;100.00
64192;BME280;50497;50.720;-2.084;2023-02-17T06:02:44;99805.72;;;9.80;100.00
64192;BME280;50497;50.720;-2.084;2023-02-17T06:05:12;99797.28;;;9.72;100.00
64192;BME280;50497;50.720;-2.084;2023-02-17T06:07:38;99808.88;;;9.73;100.00
64192;BME280;50497;50.720;-2.084;2023-02-17T06:10:08;99814.47;;;9.68;100.00
64192;BME280;50497;50.720;-2.084;2023-02-17T06:12:37;99817.50;;;9.62;100.00
64192;BME280;50497;50.720;-2.084;2023-02-17T06:15:03;99811.13;;;9.65;100.00
64192;BME280;50497;50.720;-2.084;2023-02-17T06:17:29;99817.66;;;9.59;100.00
64192;BME280;50497;50.720;-2.084;2023-02-17T06:20:02;99809.66;;;9.59;100.00
64192;BME280;50497;50.720;-2.084;2023-02-17T06:22:28;99802.19;;;9.50;100.00
64192;BME280;50497;50.720;-2.084;2023-02-17T06:24:54;99806.81;;;9.62;100.00
64192;BME280;50497;50.720;-2.084;2023-02-17T06:27:23;99810.63;;;9.58;100.00
64192;BME280;50497;50.720;-2.084;2023-02-17T06:29:53;99807.94;;;9.58;100.00
64192;BME280;50497;50.720;-2.084;2023-02-17T06:32:24;99797.16;;;9.59;100.00
64192;BME280;50497;50.720;-2.084;2023-02-17T06:34:50;99807.94;;;9.58;100.00
64192;BME280;50497;50.720;-2.084;2023-02-17T06:37:20;99806.63;;;9.65;100.00
64192;BME280;50497;50.720;-2.084;2023-02-17T06:39:53;99798.69;;;9.64;100.00
64192;BME280;50497;50.720;-2.084;2023-02-17T06:42:18;99802.81;;;9.69;100.00
64192;BME280;50497;50.720;-2.084;2023-02-17T06:44:47;99817.06;;;9.70;100.00
64192;BME280;50497;50.720;-2.084;2023-02-17T06:47:14;99808.16;;;9.69;100.00
64192;BME280;50497;50.720;-2.084;2023-02-17T06:49:39;99809.72;;;9.73;100.00
64192;BME280;50497;50.720;-2.084;2023-02-17T06:52:12;99810.75;;;9.71;100.00
64192;BME280;50497;50.720;-2.084;2023-02-17T06:54:38;99814.88;;;9.76;100.00
64192;BME280;50497;50.720;-2.084;2023-02-17T06:57:04;99817.38;;;9.79;100.00
64192;BME280;50497;50.720;-2.084;2023-02-17T06:59:32;99828.16;;;9.78;100.00
64192;BME280;50497;50.720;-2.084;2023-02-17T07:01:58;99838.38;;;9.86;100.00
64192;BME280;50497;50.720;-2.084;2023-02-17T07:04:23;99838.75;;;9.79;100.00
64192;BME280;50497;50.720;-2.084;2023-02-17T07:06:49;99840.44;;;9.80;100.00
64192;BME280;50497;50.720;-2.084;2023-02-17T07:09:15;99829.75;;;9.80;100.00
64192;BME280;50497;50.720;-2.084;2023-02-17T07:11:44;99859.31;;;9.77;100.00
64192;BME280;50497;50.720;-2.084;2023-02-17T07:14:19;99853.97;;;9.77;100.00
64192;BME280;50497;50.720;-2.084;2023-02-17T07:16:51;99862.16;;;9.74;100.00
64192;BME280;50497;50.720;-2.084;2023-02-17T07:19:17;99837.91;;;9.63;100.00
64192;BME280;50497;50.720;-2.084;2023-02-17T07:21:50;99859.50;;;9.74;100.00
64192;BME280;50497;50.720;-2.084;2023-02-17T07:24:16;99862.47;;;9.70;100.00
64192;BME280;50497;50.720;-2.084;2023-02-17T07:26:52;99864.06;;;9.72;100.00
64192;BME280;50497;50.720;-2.084;2023-02-17T07:29:27;99865.38;;;9.65;100.00
64192;BME280;50497;50.720;-2.084;2023-02-17T07:31:56;99886.59;;;9.68;100.00
64192;BME280;50497;50.720;-2.084;2023-02-17T07:34:22;99894.22;;;9.74;100.00
64192;BME280;50497;50.720;-2.084;2023-02-17T07:36:56;99890.69;;;9.74;100.00
64192;BME280;50497;50.720;-2.084;2023-02-17T07:39:21;99876.66;;;9.70;100.00
64192;BME280;50497;50.720;-2.084;2023-02-17T07:41:46;99906.63;;;9.75;100.00
64192;BME280;50497;50.720;-2.084;2023-02-17T07:44:19;99907.22;;;9.80;100.00
64192;BME280;50497;50.720;-2.084;2023-02-17T07:46:45;99898.19;;;9.83;100.00
64192;BME280;50497;50.720;-2.084;2023-02-17T07:49:11;99915.06;;;9.84;100.00
64192;BME280;50497;50.720;-2.084;2023-02-17T07:51:40;99922.91;;;9.87;100.00
64192;BME280;50497;50.720;-2.084;2023-02-17T07:54:12;99926.44;;;9.87;100.00
64192;BME280;50497;50.720;-2.084;2023-02-17T07:56:38;99924.28;;;9.94;100.00
64192;BME280;50497;50.720;-2.084;2023-02-17T07:59:08;99930.94;;;9.87;100.00
64192;BME280;50497;50.720;-2.084;2023-02-17T08:01:33;99945.81;;;9.91;100.00
64192;BME280;50497;50.720;-2.084;2023-02-17T08:03:59;99953.94;;;9.89;100.00
64192;BME280;50497;50.720;-2.084;2023-02-17T08:06:25;99968.16;;;9.90;100.00
64192;BME280;50497;50.720;-2.084;2023-02-17T08:08:53;99977.53;;;9.97;100.00
64192;BME280;50497;50.720;-2.084;2023-02-17T08:11:39;99977.53;;;9.97;100.00
64192;BME280;50497;50.720;-2.084;2023-02-17T08:14:26;99979.97;;;10.02;100.00
64192;BME280;50497;50.720;-2.084;2023-02-17T08:16:52;99987.53;;;10.09;100.00
64192;BME280;50497;50.720;-2.084;2023-02-17T08:19:21;99989.59;;;10.04;100.00
64192;BME280;50497;50.720;-2.084;2023-02-17T08:21:52;99985.47;;;10.14;100.00
64192;BME280;50497;50.720;-2.084;2023-02-17T08:24:17;99975.47;;;10.18;100.00
64192;BME280;50497;50.720;-2.084;2023-02-17T08:26:48;99981.66;;;10.18;100.00
64192;BME280;50497;50.720;-2.084;2023-02-17T08:29:14;99994.84;;;10.22;100.00
64192;BME280;50497;50.720;-2.084;2023-02-17T08:31:39;100000.78;;;10.27;100.00
64192;BME280;50497;50.720;-2.084;2023-02-17T08:34:07;100004.16;;;10.30;100.00
64192;BME280;50497;50.720;-2.084;2023-02-17T08:36:37;100004.22;;;10.29;100.00
64192;BME280;50497;50.720;-2.084;2023-02-17T08:39:05;99987.34;;;10.28;100.00
64192;BME280;50497;50.720;-2.084;2023-02-17T08:41:36;100005.44;;;10.39;100.00
64192;BME280;50497;50.720;-2.084;2023-02-17T08:44:07;99998.38;;;10.38;100.00
64192;BME280;50497;50.720;-2.084;2023-02-17T08:46:37;99992.47;;;10.33;100.00
64192;BME280;50497;50.720;-2.084;2023-02-17T08:49:03;100008.75;;;10.44;100.00
64192;BME280;50497;50.720;-2.084;2023-02-17T08:51:29;100008.63;;;10.46;100.00
64192;BME280;50497;50.720;-2.084;2023-02-17T08:53:57;100013.19;;;10.44;100.00
64192;BME280;50497;50.720;-2.084;2023-02-17T08:56:25;100019.53;;;10.43;100.00
64192;BME280;50497;50.720;-2.084;2023-02-17T08:58:51;100014.19;;;10.43;100.00
64192;BME280;50497;50.720;-2.084;2023-02-17T09:01:23;100040.63;;;10.47;100.00
64192;BME280;50497;50.720;-2.084;2023-02-17T09:03:53;100035.91;;;10.52;100.00
64192;BME280;50497;50.720;-2.084;2023-02-17T09:06:32;100032.25;;;10.53;100.00
64192;BME280;50497;50.720;-2.084;2023-02-17T09:09:04;100030.00;;;10.62;100.00
64192;BME280;50497;50.720;-2.084;2023-02-17T09:11:34;100043.59;;;10.73;100.00
64192;BME280;50497;50.720;-2.084;2023-02-17T09:14:02;100053.13;;;10.63;100.00
64192;BME280;50497;50.720;-2.084;2023-02-17T09:16:27;100051.63;;;10.73;100.00
64192;BME280;50497;50.720;-2.084;2023-02-17T09:18:53;100051.63;;;10.73;100.00
64192;BME280;50497;50.720;-2.084;2023-02-17T09:21:19;100066.63;;;10.76;100.00
64192;BME280;50497;50.720;-2.084;2023-02-17T09:23:48;100059.88;;;10.84;100.00
64192;BME280;50497;50.720;-2.084;2023-02-17T09:26:18;100076.28;;;10.78;100.00
64192;BME280;50497;50.720;-2.084;2023-02-17T09:28:47;100083.09;;;10.84;100.00
64192;BME280;50497;50.720;-2.084;2023-02-17T09:31:18;100078.31;;;10.89;100.00
64192;BME280;50497;50.720;-2.084;2023-02-17T09:33:45;100079.88;;;10.93;100.00
64192;BME280;50497;50.720;-2.084;2023-02-17T09:36:14;100072.78;;;10.92;100.00
64192;BME280;50497;50.720;-2.084;2023-02-17T09:38:46;100077.44;;;11.04;100.00
64192;BME280;50497;50.720;-2.084;2023-02-17T09:43:57;100101.16;;;11.25;100.00
64192;BME280;50497;50.720;-2.084;2023-02-17T09:46:27;100109.03;;;11.28;100.00
64192;BME280;50497;50.720;-2.084;2023-02-17T09:48:55;100108.09;;;11.43;100.00
64192;BME280;50497;50.720;-2.084;2023-02-17T09:51:35;100100.81;;;11.31;100.00
64192;BME280;50497;50.720;-2.084;2023-02-17T09:54:27;100116.16;;;11.58;100.00
64192;BME280;50497;50.720;-2.084;2023-02-17T09:56:55;100116.25;;;11.71;100.00
64192;BME280;50497;50.720;-2.084;2023-02-17T09:59:29;100130.31;;;11.74;100.00
64192;BME280;50497;50.720;-2.084;2023-02-17T10:01:58;100127.75;;;12.01;100.00
64192;BME280;50497;50.720;-2.084;2023-02-17T10:04:34;100140.34;;;12.28;100.00
64192;BME280;50497;50.720;-2.084;2023-02-17T10:07:09;100180.81;;;12.11;100.00
64192;BME280;50497;50.720;-2.084;2023-02-17T10:09:58;100190.16;;;11.89;100.00
64192;BME280;50497;50.720;-2.084;2023-02-17T10:12:32;100189.50;;;12.00;100.00
64192;BME280;50497;50.720;-2.084;2023-02-17T10:15:13;100201.81;;;11.88;100.00
64192;BME280;50497;50.720;-2.084;2023-02-17T10:21:03;100207.31;;;11.56;100.00
64192;BME280;50497;50.720;-2.084;2023-02-17T10:23:32;100196.34;;;11.61;100.00
64192;BME280;50497;50.720;-2.084;2023-02-17T10:32:04;100187.72;;;11.70;100.00
64192;BME280;50497;50.720;-2.084;2023-02-17T10:34:31;100168.94;;;12.00;100.00
64192;BME280;50497;50.720;-2.084;2023-02-17T10:37:14;100169.50;;;12.06;100.00
64192;BME280;50497;50.720;-2.084;2023-02-17T10:39:48;100167.91;;;12.45;100.00
64192;BME280;50497;50.720;-2.084;2023-02-17T10:42:22;100175.59;;;12.51;100.00
64192;BME280;50497;50.720;-2.084;2023-02-17T10:44:52;100197.50;;;12.72;100.00
64192;BME280;50497;50.720;-2.084;2023-02-17T10:47:22;100203.38;;;12.50;100.00
64192;BME280;50497;50.720;-2.084;2023-02-17T10:49:52;100225.91;;;12.47;100.00
64192;BME280;50497;50.720;-2.084;2023-02-17T10:52:26;100236.34;;;12.37;100.00
64192;BME280;50497;50.720;-2.084;2023-02-17T10:55:08;100217.16;;;12.58;100.00
64192;BME280;50497;50.720;-2.084;2023-02-17T10:57:42;100214.44;;;12.72;100.00
64192;BME280;50497;50.720;-2.084;2023-02-17T11:00:19;100218.31;;;12.96;100.00
64192;BME280;50497;50.720;-2.084;2023-02-17T11:02:49;100194.88;;;13.52;100.00
64192;BME280;50497;50.720;-2.084;2023-02-17T11:05:30;100210.22;;;13.37;100.00
64192;BME280;50497;50.720;-2.084;2023-02-17T11:10:32;100210.91;;;13.79;100.00
64192;BME280;50497;50.720;-2.084;2023-02-17T11:12:58;100231.94;;;14.00;100.00
64192;BME280;50497;50.720;-2.084;2023-02-17T11:15:33;100234.81;;;13.97;100.00
64192;BME280;50497;50.720;-2.084;2023-02-17T11:18:19;100259.06;;;13.29;100.00
64192;BME280;50497;50.720;-2.084;2023-02-17T11:20:49;100250.97;;;13.17;100.00
64192;BME280;50497;50.720;-2.084;2023-02-17T11:23:23;100241.81;;;13.19;100.00
64192;BME280;50497;50.720;-2.084;2023-02-17T11:26:02;100241.63;;;13.49;100.00
64192;BME280;50497;50.720;-2.084;2023-02-17T11:28:35;100247.94;;;13.21;100.00
64192;BME280;50497;50.720;-2.084;2023-02-17T11:31:03;100238.75;;;13.25;100.00
64192;BME280;50497;50.720;-2.084;2023-02-17T11:33:36;100239.44;;;13.15;100.00
64192;BME280;50497;50.720;-2.084;2023-02-17T11:36:26;100243.16;;;12.99;100.00
64192;BME280;50497;50.720;-2.084;2023-02-17T11:38:55;100242.41;;;12.83;100.00
64192;BME280;50497;50.720;-2.084;2023-02-17T11:41:25;100223.81;;;12.80;100.00
64192;BME280;50497;50.720;-2.084;2023-02-17T11:43:52;100211.53;;;12.90;100.00
64192;BME280;50497;50.720;-2.084;2023-02-17T11:46:32;100199.44;;;12.55;100.00
64192;BME280;50497;50.720;-2.084;2023-02-17T11:54:36;100169.88;;;12.97;100.00
64192;BME280;50497;50.720;-2.084;2023-02-17T12:07:38;100185.53;;;13.18;100.00
64192;BME280;50497;50.720;-2.084;2023-02-17T12:10:18;100182.72;;;13.19;100.00
64192;BME280;50497;50.720;-2.084;2023-02-17T12:21:19;100172.94;;;13.45;100.00
64192;BME280;50497;50.720;-2.084;2023-02-17T12:24:28;100177.91;;;13.24;100.00
64192;BME280;50497;50.720;-2.084;2023-02-17T12:27:19;100174.56;;;13.21;100.00
64192;BME280;50497;50.720;-2.084;2023-02-17T12:30:12;100156.06;;;13.43;100.00
64192;BME280;50497;50.720;-2.084;2023-02-17T12:32:53;100169.06;;;13.37;100.00
64192;BME280;50497;50.720;-2.084;2023-02-17T12:36:00;100183.72;;;13.18;100.00
64192;BME280;50497;50.720;-2.084;2023-02-17T12:38:30;100172.81;;;13.34;100.00
64192;BME280;50497;50.720;-2.084;2023-02-17T12:41:19;100167.88;;;13.41;100.00
64192;BME280;50497;50.720;-2.084;2023-02-17T12:43:53;100182.13;;;13.28;100.00
64192;BME280;50497;50.720;-2.084;2023-02-17T12:46:28;100178.44;;;13.17;100.00
64192;BME280;50497;50.720;-2.084;2023-02-17T12:49:11;100188.00;;;13.21;100.00
64192;BME280;50497;50.720;-2.084;2023-02-17T12:51:46;100171.09;;;13.33;100.00
64192;BME280;50497;50.720;-2.084;2023-02-17T12:54:23;100180.44;;;13.13;100.00
64192;BME280;50497;50.720;-2.084;2023-02-17T12:57:16;100186.56;;;13.02;100.00
64192;BME280;50497;50.720;-2.084;2023-02-17T12:59:47;100168.84;;;13.12;100.00
64192;BME280;50497;50.720;-2.084;2023-02-17T13:02:19;100179.91;;;13.08;100.00
64192;BME280;50497;50.720;-2.084;2023-02-17T13:04:58;100183.28;;;13.11;100.00
64192;BME280;50497;50.720;-2.084;2023-02-17T13:07:45;100186.25;;;13.07;100.00
64192;BME280;50497;50.720;-2.084;2023-02-17T13:10:29;100170.34;;;13.04;100.00
64192;BME280;50497;50.720;-2.084;2023-02-17T13:13:02;100165.38;;;12.98;100.00
64192;BME280;50497;50.720;-2.084;2023-02-17T13:15:43;100180.91;;;13.20;100.00
64192;BME280;50497;50.720;-2.084;2023-02-17T13:18:27;100165.47;;;12.96;100.00
64192;BME280;50497;50.720;-2.084;2023-02-17T13:23:39;100156.97;;;13.17;100.00
64192;BME280;50497;50.720;-2.084;2023-02-17T13:29:19;100162.78;;;13.23;100.00
64192;BME280;50497;50.720;-2.084;2023-02-17T13:32:09;100159.09;;;13.24;100.00
64192;BME280;50497;50.720;-2.084;2023-02-17T13:34:44;100164.91;;;13.18;100.00
64192;BME280;50497;50.720;-2.084;2023-02-17T13:40:24;100180.63;;;12.97;100.00
64192;BME280;50497;50.720;-2.084;2023-02-17T13:43:18;100192.41;;;12.94;100.00
64192;BME280;50497;50.720;-2.084;2023-02-17T13:46:03;100186.44;;;13.04;100.00
64192;BME280;50497;50.720;-2.084;2023-02-17T13:48:34;100179.16;;;13.06;100.00
64192;BME280;50497;50.720;-2.084;2023-02-17T13:51:02;100186.91;;;13.10;100.00
64192;BME280;50497;50.720;-2.084;2023-02-17T13:53:48;100180.22;;;13.03;100.00
64192;BME280;50497;50.720;-2.084;2023-02-17T13:56:27;100175.22;;;13.11;100.00
64192;BME280;50497;50.720;-2.084;2023-02-17T13:59:24;100177.66;;;13.15;100.00
64192;BME280;50497;50.720;-2.084;2023-02-17T14:01:51;100189.19;;;13.17;100.00
64192;BME280;50497;50.720;-2.084;2023-02-17T14:04:29;100194.06;;;12.97;100.00
64192;BME280;50497;50.720;-2.084;2023-02-17T14:07:05;100185.38;;;13.06;100.00
64192;BME280;50497;50.720;-2.084;2023-02-17T14:09:39;100184.22;;;13.10;100.00
64192;BME280;50497;50.720;-2.084;2023-02-17T14:12:20;100177.94;;;12.97;100.00
64192;BME280;50497;50.720;-2.084;2023-02-17T14:14:51;100185.72;;;13.15;100.00
64192;BME280;50497;50.720;-2.084;2023-02-17T14:17:35;100188.63;;;13.11;100.00
64192;BME280;50497;50.720;-2.084;2023-02-17T14:20:34;100202.47;;;13.05;100.00